Martinsburg, WV (25402)

1:52 AM EST on December 29, 2014 (GMT -0500)
RAWS MARTINSBURG WV US | Change Station
CLOSE
Current Station
Personal Weather Station
Location: Martinsburg, WV
Elevation: 525 ft
Nearby Weather Stations

Elev 525 ft 39.41 °N, 77.98 °W | Updated 39 minutes ago

Overcast
Overcast
41 °F
Feels Like 36 °F
N
7
Wind Variable Wind from NNW
Gusts 11.0 mph

Today
High -- | Low -- °F
--% Chance of Precip.
Yesterday
High -- | Low -- °F
Precip. -- in
7:31 AM 4:56 PM
First Quarter, 56% visible
Pressure 30.14 in
Visibility 10.0 miles
Clouds Mostly Cloudy 5000 ft
Overcast 6500 ft
Windchill 36 °F
Dew Point 29 °F
Humidity 61%
Rainfall 0.00 in
Snow Depth Not available.
UV 0 out of 12
Pollen .10 out of 12
Air Quality Not available.
Flu Activity Not available.
METAR KMRB 290553Z AUTO 32009KT 10SM BKN050 OVC065 06/M03 A3013 RMK AO2 SLP206 T00611028 10094 20061 51006 TSNO

More Conditions Fewer Conditions

Pressure 30.14 in
Visibility 10.0 miles
Clouds Mostly Cloudy 5000 ft
Overcast 6500 ft
Windchill 36 °F
Dew Point 29 °F
Humidity 61%
Rainfall 0.00 in
Snow Depth Not available.
UV 0 out of 12
Pollen .10 out of 12
Air Quality Not available.
Flu Activity Not available.
METAR KMRB 290553Z AUTO 32009KT 10SM BKN050 OVC065 06/M03 A3013 RMK AO2 SLP206 T00611028 10094 20061 51006 TSNO

More Conditions Fewer Conditions

10-Day Weather Forecast

Almanac

Astronomy

Dec. 29, 2014 Rise Set
Actual Time
Civil Twilight
Nautical Twilight
Astronomical Twilight
Moon
Length of Visible Light
Length of Day
Tomorrow will be .
, % of the Moon is Illuminated

Today's Extremes

State Highs State Lows

Community

WunderPhotos

Upload Photos

1,781,546 photos uploaded!

WunderBlogs® & News

Nearby

Air Quality

  Air Quality AQ Index Pollutant
Not available.

Snow Depth

Station Depth Elevation

Earthquake Activity

City Distance Mag. Time & Date
Minimum magnitude displayed is 2.5.

Coastal Water Temperatures

Place Temperature

Nearby Weather Stations